EGKB/BQH METAR and TAF weather

Enter ICAO airport designator
Station Type Date Time Source
EGKB METAR 2018/12/11 13:50 UTC NOAA

EGKB 111350Z 13004KT 100V170 9999 FEW020 08/04 Q1024


Station Type Date Time Source
EGKB Decoded METAR 2018/12/11 13:50 UTC NOAA

Biggin Hill , United Kingdom (EGKB) 51-19N 000-02E
Dec 11, 2018 - 08:50 AM EST / 2018.12.11 1350 UTC
Wind: from the SE (130 degrees) at 5 MPH (4 KT) (direction variable):0
Visibility: greater than 7 mile(s):0
Sky conditions: mostly clear
Temperature: 46 F (8 C)
Dew Point: 39 F (4 C)
Relative Humidity: 75%
Pressure (altimeter): 30.24 in. Hg (1024 hPa)
ob: EGKB 111350Z 13004KT 100V170 9999 FEW020 08/04 Q1024
cycle: 14

Station Type Date Time Source
EGKB TAF 2018/11/11 18:33 UTC NOAA

TAF EGKB 110723Z 1018/1121 CNL


Example: see airport list